Candido Mendes, Brazil
Current Conditions -  °F | °C
As of 5:00 PM on Thursday 29 Jan 2015 (Local Time) from SBSL Reporting Station
Scattered Clouds Scattered Clouds  
Wind Chill: 86°   Ceiling: Unl
Heat Index: 89°   Visibility: 6mi
Dew Point: 68°   Wind: 20mph
Humidity: 55%   Direction: 30°NNE
Pressure: 29.8"   Gusts: NA
Location:  1.45°S, 45.72°W
Report Text: SBSL 292000Z 03017KT 9999 SCT020 30/20 Q1009
Loading
Personal Weather Stations






























Interactive Weather Map New forecast layout! Learn more

10-Day Weather Forecast

Advertisements
Track Severe Weather on mobile